Terminal Aerodrome Forecast
Issued by NWS

Home | Current Version | Previous Version | Text Only | Print | Product List | Glossary On
Versions: 1 2 3 4 5 6 7 8 9 10 11 12 13 14 15 16
000
FTUS43 KICT 120500 RRA
TAFCNU
TAF
KCNU 120546Z 1206/1306 06011KT P6SM OVC015
     FM121100 02015KT 6SM BR SCT009 OVC015
     FM121800 36015G20KT P6SM OVC015=

USA.gov is the U.S. government's official web portal to all federal, state and local government web resources and services.